HUN4P LHBP-LGKR
Flight info
| Callsign | HUN4P |
|---|---|
| Flight time | 1h 23m |
| Altitude | 38000 |
| Route | FAHAZ DCT KEROP DCT TADAM DCT RODON DCT LIMJA N732 PITAS |
| Aircraft | B738/M-SDE2E3FGHIJ2J5RWXY/LB1 |
Departure
| Time | 2026-05-05 16:01 |
|---|---|
| Airport | Budapest Liszt Ferenc International Airport (LHBP) |
Arrival
| Time | 2026-05-05 17:24 |
|---|---|
| Airport | Corfu Ioannis Kapodistrias International Airport (LGKR) |
| Time | Latitude | Longitude | Altitude | Speed | Heading |
|---|---|---|---|---|---|
| 2026-05-05 15:25 | 47.43454 | 19.26253 | 456 ft | 0 kts | 222° |
| 2026-05-05 15:51 | 47.43462 | 19.26264 | 456 ft | 3 kts | 224° |
| 2026-05-05 15:51 | 47.43476 | 19.26285 | 456 ft | 3 kts | 233° |
| 2026-05-05 15:51 | 47.43486 | 19.26310 | 454 ft | 3 kts | 259° |
| 2026-05-05 15:52 | 47.43485 | 19.26333 | 453 ft | 3 kts | 310° |
| 2026-05-05 15:52 | 47.43491 | 19.26322 | 455 ft | 3 kts | 312° |
| 2026-05-05 15:52 | 47.43505 | 19.26300 | 455 ft | 3 kts | 312° |
| 2026-05-05 15:52 | 47.43519 | 19.26277 | 456 ft | 3 kts | 312° |
| 2026-05-05 15:53 | 47.43524 | 19.26268 | 456 ft | 0 kts | 312° |
| 2026-05-05 15:56 | 47.43533 | 19.26255 | 456 ft | 4 kts | 312° |
| 2026-05-05 15:56 | 47.43568 | 19.26207 | 456 ft | 9 kts | 326° |
| 2026-05-05 15:56 | 47.43619 | 19.26158 | 456 ft | 9 kts | 318° |
| 2026-05-05 15:57 | 47.43659 | 19.26096 | 456 ft | 8 kts | 312° |
| 2026-05-05 15:57 | 47.43697 | 19.26034 | 456 ft | 8 kts | 312° |
| 2026-05-05 15:57 | 47.43737 | 19.25977 | 456 ft | 8 kts | 330° |
| 2026-05-05 15:57 | 47.43787 | 19.25988 | 456 ft | 8 kts | 31° |
| 2026-05-05 15:58 | 47.43828 | 19.26036 | 457 ft | 7 kts | 41° |
| 2026-05-05 15:58 | 47.43864 | 19.26086 | 457 ft | 7 kts | 42° |
| 2026-05-05 15:58 | 47.43900 | 19.26134 | 457 ft | 7 kts | 42° |
| 2026-05-05 15:58 | 47.43937 | 19.26184 | 457 ft | 8 kts | 41° |
| 2026-05-05 15:59 | 47.43984 | 19.26245 | 458 ft | 10 kts | 42° |
| 2026-05-05 15:59 | 47.44033 | 19.26312 | 461 ft | 10 kts | 46° |
| 2026-05-05 15:59 | 47.44064 | 19.26396 | 465 ft | 9 kts | 76° |
| 2026-05-05 15:59 | 47.44074 | 19.26488 | 471 ft | 9 kts | 94° |
| 2026-05-05 16:00 | 47.44041 | 19.26568 | 469 ft | 10 kts | 131° |
| 2026-05-05 16:00 | 47.43937 | 19.26737 | 468 ft | 53 kts | 132° |
| 2026-05-05 16:00 | 47.43521 | 19.27407 | 468 ft | 124 kts | 132° |
| 2026-05-05 16:00 | 47.42793 | 19.28581 | 508 ft | 180 kts | 134° |
| 2026-05-05 16:01 | 47.41962 | 19.30032 | 1314 ft | 181 kts | 128° |
| 2026-05-05 16:01 | 47.41381 | 19.31635 | 2453 ft | 174 kts | 123° |
| 2026-05-05 16:01 | 47.40798 | 19.33307 | 2993 ft | 195 kts | 124° |
| 2026-05-05 16:01 | 47.40083 | 19.35157 | 3403 ft | 213 kts | 124° |
| 2026-05-05 16:02 | 47.39322 | 19.37095 | 3909 ft | 226 kts | 124° |
| 2026-05-05 16:02 | 47.38492 | 19.39190 | 4300 ft | 242 kts | 129° |
| 2026-05-05 16:02 | 47.37169 | 19.40709 | 4743 ft | 250 kts | 166° |
| 2026-05-05 16:02 | 47.35460 | 19.40736 | 5420 ft | 253 kts | 197° |
| 2026-05-05 16:03 | 47.33912 | 19.39502 | 6300 ft | 255 kts | 216° |
| 2026-05-05 16:03 | 47.32316 | 19.38383 | 7106 ft | 260 kts | 188° |
| 2026-05-05 16:03 | 47.30528 | 19.38725 | 7998 ft | 262 kts | 165° |
| 2026-05-05 16:03 | 47.28782 | 19.39587 | 8837 ft | 266 kts | 166° |
| 2026-05-05 16:04 | 47.26999 | 19.40363 | 9729 ft | 267 kts | 167° |
| 2026-05-05 16:04 | 47.25184 | 19.41070 | 10377 ft | 276 kts | 169° |
| 2026-05-05 16:04 | 47.23255 | 19.41751 | 10557 ft | 301 kts | 169° |
| 2026-05-05 16:04 | 47.21128 | 19.42445 | 10781 ft | 323 kts | 170° |
| 2026-05-05 16:05 | 47.18885 | 19.43134 | 11331 ft | 332 kts | 171° |
| 2026-05-05 16:05 | 47.16609 | 19.43804 | 12064 ft | 335 kts | 171° |
| 2026-05-05 16:05 | 47.14304 | 19.44460 | 12775 ft | 339 kts | 171° |
| 2026-05-05 16:05 | 47.11966 | 19.45110 | 13501 ft | 343 kts | 171° |
| 2026-05-05 16:06 | 47.09606 | 19.45755 | 14170 ft | 347 kts | 171° |
| 2026-05-05 16:06 | 47.07242 | 19.46395 | 14768 ft | 352 kts | 171° |
| 2026-05-05 16:06 | 47.04812 | 19.47046 | 15349 ft | 357 kts | 171° |
| 2026-05-05 16:06 | 47.02345 | 19.47705 | 15964 ft | 362 kts | 171° |
| 2026-05-05 16:07 | 46.99843 | 19.48372 | 16587 ft | 366 kts | 171° |
| 2026-05-05 16:07 | 46.97316 | 19.49044 | 17157 ft | 371 kts | 171° |
| 2026-05-05 16:07 | 46.94756 | 19.49723 | 17720 ft | 377 kts | 171° |
| 2026-05-05 16:07 | 46.92157 | 19.50412 | 18271 ft | 381 kts | 171° |
| 2026-05-05 16:08 | 46.89533 | 19.51107 | 18785 ft | 385 kts | 171° |
| 2026-05-05 16:08 | 46.86883 | 19.51809 | 19313 ft | 388 kts | 171° |
| 2026-05-05 16:08 | 46.84211 | 19.52516 | 19820 ft | 392 kts | 171° |
| 2026-05-05 16:08 | 46.81512 | 19.53229 | 20326 ft | 396 kts | 171° |
| 2026-05-05 16:09 | 46.79702 | 19.53707 | 20654 ft | 398 kts | 171° |
| 2026-05-05 16:09 | 46.76065 | 19.54666 | 21304 ft | 403 kts | 171° |
| 2026-05-05 16:09 | 46.73278 | 19.55399 | 21775 ft | 407 kts | 171° |
| 2026-05-05 16:09 | 46.70480 | 19.56135 | 22239 ft | 411 kts | 171° |
| 2026-05-05 16:10 | 46.68602 | 19.56629 | 22552 ft | 413 kts | 171° |
| 2026-05-05 16:10 | 46.65754 | 19.57377 | 23020 ft | 417 kts | 171° |
| 2026-05-05 16:10 | 46.62882 | 19.58130 | 23460 ft | 421 kts | 171° |
| 2026-05-05 16:10 | 46.59985 | 19.58890 | 23833 ft | 424 kts | 171° |
| 2026-05-05 16:11 | 46.57071 | 19.59653 | 24222 ft | 427 kts | 171° |
| 2026-05-05 16:11 | 46.48230 | 19.61962 | 25296 ft | 436 kts | 171° |
| 2026-05-05 16:12 | 46.45237 | 19.62741 | 25646 ft | 439 kts | 171° |
| 2026-05-05 16:12 | 46.39223 | 19.64306 | 26333 ft | 444 kts | 172° |
| 2026-05-05 16:13 | 46.30139 | 19.66664 | 27310 ft | 452 kts | 172° |
| 2026-05-05 16:13 | 46.27027 | 19.67470 | 27623 ft | 455 kts | 172° |
| 2026-05-05 16:13 | 46.23940 | 19.68269 | 27925 ft | 457 kts | 172° |
| 2026-05-05 16:14 | 46.17610 | 19.69547 | 28473 ft | 461 kts | 181° |
| 2026-05-05 16:14 | 46.11218 | 19.68640 | 29071 ft | 462 kts | 189° |
| 2026-05-05 16:15 | 46.04795 | 19.67491 | 29602 ft | 467 kts | 189° |
| 2026-05-05 16:15 | 45.98306 | 19.66409 | 30185 ft | 470 kts | 189° |
| 2026-05-05 16:16 | 45.91868 | 19.65368 | 30952 ft | 465 kts | 189° |
| 2026-05-05 16:16 | 45.85438 | 19.64331 | 31589 ft | 464 kts | 189° |
| 2026-05-05 16:17 | 45.79023 | 19.63295 | 32299 ft | 461 kts | 189° |
| 2026-05-05 16:17 | 45.75836 | 19.62780 | 32641 ft | 460 kts | 189° |
| 2026-05-05 16:18 | 45.69468 | 19.61753 | 33242 ft | 459 kts | 189° |
| 2026-05-05 16:18 | 45.66299 | 19.61243 | 33584 ft | 457 kts | 189° |
| 2026-05-05 16:18 | 45.60024 | 19.60235 | 34133 ft | 456 kts | 189° |
| 2026-05-05 16:19 | 45.56855 | 19.59727 | 34349 ft | 457 kts | 189° |
| 2026-05-05 16:19 | 45.53694 | 19.59220 | 34588 ft | 456 kts | 189° |
| 2026-05-05 16:19 | 45.47377 | 19.58210 | 35012 ft | 456 kts | 189° |
| 2026-05-05 16:20 | 45.41092 | 19.57206 | 35447 ft | 456 kts | 189° |
| 2026-05-05 16:20 | 45.34786 | 19.56202 | 35848 ft | 456 kts | 189° |
| 2026-05-05 16:21 | 45.28477 | 19.55199 | 36261 ft | 455 kts | 188° |
| 2026-05-05 16:22 | 45.19002 | 19.53817 | 36848 ft | 456 kts | 187° |
| 2026-05-05 16:22 | 45.12720 | 19.53063 | 37255 ft | 455 kts | 187° |
| 2026-05-05 16:23 | 45.06402 | 19.52304 | 37576 ft | 455 kts | 187° |
| 2026-05-05 16:23 | 45.03241 | 19.51918 | 37761 ft | 455 kts | 187° |
| 2026-05-05 16:23 | 44.96918 | 19.51136 | 37918 ft | 457 kts | 187° |
| 2026-05-05 16:24 | 44.90606 | 19.50352 | 37937 ft | 457 kts | 187° |
| 2026-05-05 16:25 | 44.81109 | 19.49177 | 37929 ft | 455 kts | 187° |
| 2026-05-05 16:25 | 44.71692 | 19.48016 | 37938 ft | 453 kts | 187° |
| 2026-05-05 16:26 | 44.59105 | 19.46469 | 37927 ft | 454 kts | 187° |
| 2026-05-05 16:27 | 44.52833 | 19.45701 | 37946 ft | 455 kts | 187° |
| 2026-05-05 16:27 | 44.46507 | 19.44928 | 37952 ft | 456 kts | 187° |
| 2026-05-05 16:28 | 44.40167 | 19.44155 | 37950 ft | 457 kts | 187° |
| 2026-05-05 16:28 | 44.33836 | 19.43385 | 37958 ft | 459 kts | 187° |
| 2026-05-05 16:29 | 44.27452 | 19.42609 | 37966 ft | 460 kts | 187° |
| 2026-05-05 16:29 | 44.21045 | 19.41834 | 37968 ft | 462 kts | 187° |
| 2026-05-05 16:30 | 44.14665 | 19.41063 | 37979 ft | 463 kts | 187° |
| 2026-05-05 16:30 | 44.08231 | 19.40286 | 37984 ft | 464 kts | 187° |
| 2026-05-05 16:31 | 44.01785 | 19.39511 | 37970 ft | 464 kts | 187° |
| 2026-05-05 16:31 | 43.95389 | 19.38744 | 37986 ft | 461 kts | 187° |
| 2026-05-05 16:32 | 43.88989 | 19.37978 | 37979 ft | 461 kts | 187° |
| 2026-05-05 16:32 | 43.82593 | 19.37213 | 37986 ft | 460 kts | 187° |
| 2026-05-05 16:33 | 43.76241 | 19.36454 | 37996 ft | 460 kts | 187° |
| 2026-05-05 16:33 | 43.69854 | 19.35694 | 38010 ft | 460 kts | 187° |
| 2026-05-05 16:34 | 43.63466 | 19.34935 | 38005 ft | 460 kts | 187° |
| 2026-05-05 16:34 | 43.57088 | 19.34179 | 38003 ft | 461 kts | 187° |
| 2026-05-05 16:35 | 43.50732 | 19.33427 | 38010 ft | 461 kts | 187° |
| 2026-05-05 16:35 | 43.44329 | 19.32671 | 38016 ft | 461 kts | 187° |
| 2026-05-05 16:36 | 43.37917 | 19.31916 | 38027 ft | 462 kts | 187° |
| 2026-05-05 16:36 | 43.31535 | 19.31166 | 38028 ft | 462 kts | 187° |
| 2026-05-05 16:37 | 43.25110 | 19.30412 | 38041 ft | 462 kts | 187° |
| 2026-05-05 16:37 | 43.18727 | 19.29665 | 38041 ft | 462 kts | 187° |
| 2026-05-05 16:38 | 43.12300 | 19.28915 | 38061 ft | 463 kts | 187° |
| 2026-05-05 16:38 | 43.05859 | 19.28164 | 38061 ft | 464 kts | 187° |
| 2026-05-05 16:39 | 42.99440 | 19.27418 | 38058 ft | 465 kts | 187° |
| 2026-05-05 16:39 | 42.92985 | 19.26669 | 38060 ft | 465 kts | 188° |
| 2026-05-05 16:40 | 42.86534 | 19.25922 | 38067 ft | 464 kts | 187° |
| 2026-05-05 16:40 | 42.80083 | 19.25176 | 38072 ft | 465 kts | 187° |
| 2026-05-05 16:41 | 42.73683 | 19.24438 | 38075 ft | 465 kts | 188° |
| 2026-05-05 16:41 | 42.67224 | 19.23695 | 38084 ft | 464 kts | 188° |
| 2026-05-05 16:42 | 42.60775 | 19.22953 | 38061 ft | 462 kts | 188° |
| 2026-05-05 16:42 | 42.54365 | 19.22220 | 38075 ft | 462 kts | 188° |
| 2026-05-05 16:43 | 42.47990 | 19.21490 | 38069 ft | 463 kts | 188° |
| 2026-05-05 16:43 | 42.41543 | 19.20754 | 38078 ft | 465 kts | 188° |
| 2026-05-05 16:44 | 42.35081 | 19.20018 | 38078 ft | 466 kts | 188° |
| 2026-05-05 16:44 | 42.28644 | 19.19286 | 38072 ft | 467 kts | 188° |
| 2026-05-05 16:45 | 42.22133 | 19.18547 | 38078 ft | 469 kts | 188° |
| 2026-05-05 16:45 | 42.15620 | 19.17810 | 38078 ft | 470 kts | 188° |
| 2026-05-05 16:46 | 42.09091 | 19.17073 | 38079 ft | 471 kts | 188° |
| 2026-05-05 16:46 | 42.02570 | 19.16338 | 38071 ft | 472 kts | 188° |
| 2026-05-05 16:47 | 41.96006 | 19.15600 | 38082 ft | 472 kts | 188° |
| 2026-05-05 16:47 | 41.89449 | 19.14864 | 38073 ft | 472 kts | 188° |
| 2026-05-05 16:48 | 41.82911 | 19.14131 | 38079 ft | 471 kts | 188° |
| 2026-05-05 16:48 | 41.76427 | 19.13406 | 38079 ft | 469 kts | 188° |
| 2026-05-05 16:49 | 41.69921 | 19.12680 | 38079 ft | 468 kts | 188° |
| 2026-05-05 16:49 | 41.63419 | 19.11956 | 38079 ft | 467 kts | 188° |
| 2026-05-05 16:50 | 41.60157 | 19.11593 | 37838 ft | 471 kts | 188° |
| 2026-05-05 16:50 | 41.56905 | 19.11230 | 37331 ft | 473 kts | 188° |
| 2026-05-05 16:50 | 41.53620 | 19.10867 | 36815 ft | 469 kts | 188° |
| 2026-05-05 16:50 | 41.50381 | 19.10509 | 36321 ft | 466 kts | 188° |
| 2026-05-05 16:51 | 41.47145 | 19.10404 | 35807 ft | 467 kts | 179° |
| 2026-05-05 16:51 | 41.43918 | 19.10994 | 35315 ft | 468 kts | 170° |
| 2026-05-05 16:51 | 41.40800 | 19.12248 | 34837 ft | 470 kts | 161° |
| 2026-05-05 16:51 | 41.37766 | 19.13793 | 34384 ft | 476 kts | 161° |
| 2026-05-05 16:52 | 41.34625 | 19.15388 | 33884 ft | 477 kts | 161° |
| 2026-05-05 16:52 | 41.31558 | 19.16928 | 33342 ft | 475 kts | 161° |
| 2026-05-05 16:52 | 41.28467 | 19.18461 | 32809 ft | 472 kts | 161° |
| 2026-05-05 16:52 | 41.25386 | 19.19973 | 32302 ft | 471 kts | 162° |
| 2026-05-05 16:53 | 41.22296 | 19.21479 | 31786 ft | 470 kts | 162° |
| 2026-05-05 16:53 | 41.20249 | 19.22474 | 31444 ft | 470 kts | 162° |
| 2026-05-05 16:53 | 41.17175 | 19.23965 | 30969 ft | 470 kts | 161° |
| 2026-05-05 16:53 | 41.14084 | 19.25462 | 30484 ft | 472 kts | 161° |
| 2026-05-05 16:54 | 41.10978 | 19.26965 | 29987 ft | 478 kts | 161° |
| 2026-05-05 16:54 | 41.07834 | 19.28486 | 29449 ft | 481 kts | 161° |
| 2026-05-05 16:54 | 41.04675 | 19.30014 | 28881 ft | 480 kts | 161° |
| 2026-05-05 16:54 | 41.01569 | 19.31516 | 28350 ft | 479 kts | 161° |
| 2026-05-05 16:55 | 40.98426 | 19.33034 | 27824 ft | 478 kts | 161° |
| 2026-05-05 16:55 | 40.95301 | 19.34543 | 27310 ft | 477 kts | 161° |
| 2026-05-05 16:55 | 40.92178 | 19.36048 | 26802 ft | 476 kts | 161° |
| 2026-05-05 16:55 | 40.89050 | 19.37553 | 26306 ft | 476 kts | 161° |
| 2026-05-05 16:56 | 40.85925 | 19.39057 | 25813 ft | 476 kts | 160° |
| 2026-05-05 16:56 | 40.82847 | 19.40535 | 25337 ft | 476 kts | 160° |
| 2026-05-05 16:56 | 40.79736 | 19.42028 | 24865 ft | 474 kts | 160° |
| 2026-05-05 16:56 | 40.76652 | 19.43507 | 24393 ft | 469 kts | 160° |
| 2026-05-05 16:57 | 40.73595 | 19.44972 | 23930 ft | 464 kts | 160° |
| 2026-05-05 16:57 | 40.70566 | 19.46422 | 23438 ft | 459 kts | 160° |
| 2026-05-05 16:57 | 40.67573 | 19.47853 | 22892 ft | 454 kts | 160° |
| 2026-05-05 16:57 | 40.64614 | 19.49267 | 22369 ft | 450 kts | 160° |
| 2026-05-05 16:58 | 40.61682 | 19.50666 | 21844 ft | 446 kts | 160° |
| 2026-05-05 16:58 | 40.58766 | 19.52057 | 21335 ft | 442 kts | 160° |
| 2026-05-05 16:58 | 40.55890 | 19.53426 | 20827 ft | 439 kts | 160° |
| 2026-05-05 16:58 | 40.53022 | 19.54789 | 20328 ft | 435 kts | 159° |
| 2026-05-05 16:59 | 40.50180 | 19.56138 | 19846 ft | 432 kts | 159° |
| 2026-05-05 16:59 | 40.47358 | 19.57476 | 19355 ft | 429 kts | 159° |
| 2026-05-05 16:59 | 40.44560 | 19.58802 | 18899 ft | 426 kts | 159° |
| 2026-05-05 16:59 | 40.41806 | 19.60105 | 18410 ft | 414 kts | 159° |
| 2026-05-05 17:00 | 40.39134 | 19.61369 | 17879 ft | 403 kts | 159° |
| 2026-05-05 17:00 | 40.36524 | 19.62603 | 17344 ft | 394 kts | 159° |
| 2026-05-05 17:00 | 40.33997 | 19.63797 | 16826 ft | 385 kts | 159° |
| 2026-05-05 17:00 | 40.31508 | 19.64972 | 16389 ft | 375 kts | 159° |
| 2026-05-05 17:01 | 40.29074 | 19.66121 | 15956 ft | 368 kts | 159° |
| 2026-05-05 17:01 | 40.26675 | 19.67253 | 15532 ft | 363 kts | 159° |
| 2026-05-05 17:01 | 40.24327 | 19.68359 | 15130 ft | 360 kts | 159° |
| 2026-05-05 17:01 | 40.21974 | 19.69467 | 14718 ft | 357 kts | 159° |
| 2026-05-05 17:02 | 40.19636 | 19.70567 | 14353 ft | 357 kts | 159° |
| 2026-05-05 17:02 | 40.17280 | 19.71676 | 14008 ft | 359 kts | 159° |
| 2026-05-05 17:02 | 40.14958 | 19.72765 | 13602 ft | 359 kts | 159° |
| 2026-05-05 17:02 | 40.12619 | 19.73863 | 13220 ft | 354 kts | 159° |
| 2026-05-05 17:03 | 40.10307 | 19.74948 | 12835 ft | 351 kts | 159° |
| 2026-05-05 17:03 | 40.08015 | 19.76023 | 12449 ft | 348 kts | 159° |
| 2026-05-05 17:03 | 40.05744 | 19.77087 | 12053 ft | 345 kts | 159° |
| 2026-05-05 17:03 | 40.03492 | 19.78142 | 11678 ft | 341 kts | 159° |
| 2026-05-05 17:04 | 40.01264 | 19.79184 | 11306 ft | 337 kts | 159° |
| 2026-05-05 17:04 | 39.99051 | 19.80162 | 10925 ft | 334 kts | 165° |
| 2026-05-05 17:04 | 39.97703 | 19.80454 | 10700 ft | 333 kts | 176° |
| 2026-05-05 17:05 | 39.95425 | 19.80204 | 10354 ft | 329 kts | 195° |
| 2026-05-05 17:05 | 39.93337 | 19.79064 | 9984 ft | 322 kts | 214° |
| 2026-05-05 17:05 | 39.91623 | 19.77326 | 9611 ft | 310 kts | 223° |
| 2026-05-05 17:05 | 39.90032 | 19.75474 | 9213 ft | 305 kts | 224° |
| 2026-05-05 17:06 | 39.88488 | 19.73635 | 9115 ft | 296 kts | 224° |
| 2026-05-05 17:06 | 39.86974 | 19.71825 | 9103 ft | 295 kts | 224° |
| 2026-05-05 17:06 | 39.85451 | 19.69997 | 8844 ft | 299 kts | 224° |
| 2026-05-05 17:06 | 39.83935 | 19.68169 | 8613 ft | 300 kts | 224° |
| 2026-05-05 17:07 | 39.82414 | 19.66333 | 8365 ft | 296 kts | 224° |
| 2026-05-05 17:07 | 39.80897 | 19.64495 | 8114 ft | 292 kts | 224° |
| 2026-05-05 17:07 | 39.79437 | 19.62723 | 7876 ft | 288 kts | 224° |
| 2026-05-05 17:07 | 39.77978 | 19.60947 | 7640 ft | 285 kts | 224° |
| 2026-05-05 17:08 | 39.76559 | 19.59216 | 7385 ft | 275 kts | 224° |
| 2026-05-05 17:08 | 39.75200 | 19.57557 | 7138 ft | 266 kts | 224° |
| 2026-05-05 17:08 | 39.73874 | 19.55932 | 6900 ft | 258 kts | 224° |
| 2026-05-05 17:08 | 39.72587 | 19.54351 | 6659 ft | 250 kts | 224° |
| 2026-05-05 17:09 | 39.71336 | 19.52808 | 6414 ft | 245 kts | 224° |
| 2026-05-05 17:09 | 39.70106 | 19.51286 | 6174 ft | 244 kts | 224° |
| 2026-05-05 17:09 | 39.68880 | 19.49772 | 5937 ft | 243 kts | 223° |
| 2026-05-05 17:09 | 39.67468 | 19.48585 | 5672 ft | 243 kts | 200° |
| 2026-05-05 17:10 | 39.65808 | 19.48241 | 5442 ft | 242 kts | 177° |
| 2026-05-05 17:10 | 39.64161 | 19.48432 | 5234 ft | 241 kts | 174° |
| 2026-05-05 17:10 | 39.62491 | 19.48642 | 4956 ft | 241 kts | 174° |
| 2026-05-05 17:10 | 39.60823 | 19.48853 | 4591 ft | 239 kts | 174° |
| 2026-05-05 17:11 | 39.59189 | 19.49063 | 4270 ft | 232 kts | 174° |
| 2026-05-05 17:11 | 39.57616 | 19.49270 | 4027 ft | 220 kts | 175° |
| 2026-05-05 17:11 | 39.56097 | 19.49474 | 3993 ft | 217 kts | 174° |
| 2026-05-05 17:11 | 39.54604 | 19.49676 | 3997 ft | 216 kts | 174° |
| 2026-05-05 17:12 | 39.53096 | 19.49883 | 3996 ft | 219 kts | 172° |
| 2026-05-05 17:12 | 39.51680 | 19.50486 | 3991 ft | 218 kts | 147° |
| 2026-05-05 17:12 | 39.50605 | 19.51815 | 3989 ft | 209 kts | 126° |
| 2026-05-05 17:12 | 39.49773 | 19.53315 | 3976 ft | 200 kts | 124° |
| 2026-05-05 17:13 | 39.48995 | 19.54792 | 3987 ft | 197 kts | 123° |
| 2026-05-05 17:13 | 39.48242 | 19.56273 | 3994 ft | 196 kts | 122° |
| 2026-05-05 17:13 | 39.47494 | 19.57749 | 3992 ft | 196 kts | 122° |
| 2026-05-05 17:13 | 39.46757 | 19.59217 | 4001 ft | 196 kts | 122° |
| 2026-05-05 17:14 | 39.46019 | 19.60699 | 3992 ft | 194 kts | 122° |
| 2026-05-05 17:14 | 39.45296 | 19.62153 | 3988 ft | 191 kts | 122° |
| 2026-05-05 17:14 | 39.44583 | 19.63587 | 3935 ft | 188 kts | 122° |
| 2026-05-05 17:14 | 39.43876 | 19.65007 | 3660 ft | 187 kts | 122° |
| 2026-05-05 17:15 | 39.43182 | 19.66399 | 3403 ft | 184 kts | 122° |
| 2026-05-05 17:15 | 39.42485 | 19.67796 | 3116 ft | 182 kts | 123° |
| 2026-05-05 17:15 | 39.41799 | 19.69172 | 2938 ft | 183 kts | 123° |
| 2026-05-05 17:15 | 39.41099 | 19.70572 | 2918 ft | 186 kts | 123° |
| 2026-05-05 17:16 | 39.40401 | 19.71969 | 2897 ft | 183 kts | 123° |
| 2026-05-05 17:16 | 39.39764 | 19.73379 | 2879 ft | 182 kts | 108° |
| 2026-05-05 17:16 | 39.39748 | 19.74984 | 2933 ft | 182 kts | 80° |
| 2026-05-05 17:16 | 39.39833 | 19.76653 | 2913 ft | 187 kts | 89° |
| 2026-05-05 17:17 | 39.39834 | 19.78304 | 2893 ft | 184 kts | 89° |
| 2026-05-05 17:17 | 39.39840 | 19.79944 | 2885 ft | 181 kts | 89° |
| 2026-05-05 17:17 | 39.39853 | 19.81579 | 2905 ft | 182 kts | 89° |
| 2026-05-05 17:17 | 39.39870 | 19.83222 | 2900 ft | 183 kts | 89° |
| 2026-05-05 17:18 | 39.39889 | 19.84871 | 2901 ft | 183 kts | 89° |
| 2026-05-05 17:18 | 39.39908 | 19.86506 | 2906 ft | 184 kts | 88° |
| 2026-05-05 17:18 | 39.39995 | 19.88158 | 2890 ft | 184 kts | 75° |
| 2026-05-05 17:18 | 39.40403 | 19.89718 | 2908 ft | 183 kts | 71° |
| 2026-05-05 17:19 | 39.40774 | 19.91278 | 2904 ft | 179 kts | 72° |
| 2026-05-05 17:19 | 39.41127 | 19.92821 | 2900 ft | 180 kts | 72° |
| 2026-05-05 17:19 | 39.41481 | 19.94379 | 2904 ft | 181 kts | 72° |
| 2026-05-05 17:19 | 39.41842 | 19.95928 | 2891 ft | 176 kts | 68° |
| 2026-05-05 17:20 | 39.42577 | 19.97075 | 2886 ft | 165 kts | 22° |
| 2026-05-05 17:20 | 39.43692 | 19.97247 | 2907 ft | 167 kts | 348° |
| 2026-05-05 17:20 | 39.44809 | 19.96834 | 2774 ft | 166 kts | 342° |
| 2026-05-05 17:20 | 39.45900 | 19.96438 | 2637 ft | 161 kts | 343° |
| 2026-05-05 17:21 | 39.46961 | 19.96049 | 2438 ft | 155 kts | 342° |
| 2026-05-05 17:21 | 39.47994 | 19.95673 | 2191 ft | 155 kts | 343° |
| 2026-05-05 17:21 | 39.49019 | 19.95276 | 1961 ft | 151 kts | 339° |
| 2026-05-05 17:22 | 39.51004 | 19.94293 | 1708 ft | 155 kts | 334° |
| 2026-05-05 17:22 | 39.51986 | 19.93750 | 1510 ft | 155 kts | 336° |
| 2026-05-05 17:22 | 39.52995 | 19.93286 | 1270 ft | 152 kts | 340° |
| 2026-05-05 17:22 | 39.54010 | 19.92878 | 1008 ft | 152 kts | 342° |
| 2026-05-05 17:23 | 39.55033 | 19.92549 | 821 ft | 152 kts | 346° |
| 2026-05-05 17:23 | 39.56074 | 19.92289 | 694 ft | 152 kts | 348° |
| 2026-05-05 17:23 | 39.57115 | 19.92024 | 521 ft | 155 kts | 345° |
| 2026-05-05 17:23 | 39.58164 | 19.91738 | 332 ft | 154 kts | 348° |
| 2026-05-05 17:24 | 39.59206 | 19.91471 | 98 ft | 149 kts | 347° |
| 2026-05-05 17:24 | 39.60189 | 19.91208 | 21 ft | 130 kts | 351° |
| 2026-05-05 17:24 | 39.60867 | 19.91037 | 19 ft | 68 kts | 348° |
| 2026-05-05 17:24 | 39.61181 | 19.90959 | 20 ft | 24 kts | 1° |
| 2026-05-05 17:25 | 39.61211 | 19.91051 | 21 ft | 11 kts | 116° |
| 2026-05-05 17:25 | 39.61173 | 19.91091 | 18 ft | 11 kts | 168° |
| 2026-05-05 17:25 | 39.61104 | 19.91109 | 19 ft | 7 kts | 168° |
| 2026-05-05 17:25 | 39.61056 | 19.91121 | 18 ft | 7 kts | 168° |
| 2026-05-05 17:26 | 39.61009 | 19.91134 | 20 ft | 7 kts | 168° |
| 2026-05-05 17:26 | 39.60961 | 19.91147 | 19 ft | 8 kts | 168° |
| 2026-05-05 17:26 | 39.60901 | 19.91164 | 19 ft | 10 kts | 168° |
| 2026-05-05 17:26 | 39.60829 | 19.91183 | 18 ft | 11 kts | 168° |
| 2026-05-05 17:27 | 39.60758 | 19.91202 | 17 ft | 10 kts | 168° |
| 2026-05-05 17:27 | 39.60695 | 19.91218 | 17 ft | 9 kts | 169° |
| 2026-05-05 17:27 | 39.60644 | 19.91234 | 17 ft | 7 kts | 151° |
| 2026-05-05 17:27 | 39.60607 | 19.91272 | 18 ft | 7 kts | 141° |
| 2026-05-05 17:28 | 39.60584 | 19.91309 | 18 ft | 3 kts | 105° |
| 2026-05-05 17:28 | 39.60584 | 19.91326 | 18 ft | 0 kts | 86° |
| 2026-05-05 17:29 | 39.60584 | 19.91330 | 18 ft | 2 kts | 84° |
| 2026-05-05 17:29 | 39.60587 | 19.91352 | 18 ft | 2 kts | 79° |
| 2026-05-05 17:30 | 39.60589 | 19.91364 | 18 ft | 1 kts | 79° |
| 2026-05-05 17:30 | 39.60590 | 19.91375 | 18 ft | 1 kts | 78° |
| 2026-05-05 17:30 | 39.60592 | 19.91383 | 18 ft | 0 kts | 78° |